Marathon Airport
CYSP : rendu visible

Aérodrome :











RETROUVEZ-NOUS SUR...

 
LOGIN :

S'inscrire | Disclaimer

   EN    FR    IT 

 









Légende :    VFR   VFR Marginal   IFR   IFR Intensif   IFR Très Intensif
Visi : 
Plafond : 
>= 8 km
>= 3000ft
5 à 8 km
1000 à 3000 ft
1500m à 5 km
500 à 1000 ft
800 à 1500m
200 à 500 ft
< 800m
< 200 ft
Symboles :   Orages  Brouillard  Fortes neiges  Fortes précipitations  Vent > 20 kt






- Altitude de l'aérodrome : 1035 ft
- Code IATA : YSP


CYSP - Marathon

DERNIER METAR :
  • 191527Z 00000KT 1/2SM FG OVC004 01/01 A2974 RMK FG4ST4 SLP087

METARs EXPIRÉS :
  • 191500Z 00000KT 1/4SM -SN FG VV003 00/00 A2973 RMK FG8 SLP084
  • 191400Z 09002KT 1/4SM -SN FG VV003 00/00 A2972 RMK FG8 SLP081
  • 191351Z 00000KT 1/4SM -SN FG VV003 00/00 A2972 RMK FG8 SLP081
  • 191313Z 10002KT 1/4SM FG VV002 00/00 A2971 RMK FG8 SLP078

TAF TAF CYSP
Valide du 19 à 15h jusqu'au 19 à 22h UTC


191438Z 1915/1922 VRB03KT 1/4SM -SN FG VV003
TEMPO 1915/1918 6SM BR SCT003 OVC010
FM191800 VRB03KT 4SM BR BKN005 OVC015
TEMPO 1918/1922 P6SM NSW SCT005 BKN015 OVC050 RMK NXT FCST BY 192000Z



MET'MAP, la Météo Aéronautique d'un coup d'oeil ! - Copyright ORBIFLY Décembre 2007 - Disclaimer

ORBIFLY MET'MAP TEAM :

Programmation & Développement : Alexandra Zaïnal
Conception & Développement : Baudouin d'Aumeries
Co-Programmation & Développement : Marc-Olivier Méhu
Soutien technique & logistique : Manuel Goepfert

Contact : metmap@orbifly.com




SOURCES & CREDITS :

   NOAA       Earth
Advisory